createdAt,value
2022-11-22T00:00:24.287Z,16.31
2022-11-22T00:01:45.687Z,15.93
2022-11-22T00:03:07.709Z,16.65
2022-11-22T00:04:29.147Z,12.24
2022-11-22T00:05:50.270Z,14.52
2022-11-22T00:07:11.336Z,15.88
2022-11-22T00:08:32.389Z,14.44
2022-11-22T00:09:53.530Z,14.15
2022-11-22T00:11:15.348Z,14.13
2022-11-22T00:12:37.683Z,14.08
2022-11-22T00:13:58.928Z,15.12
2022-11-22T00:15:20.452Z,15.83
2022-11-22T00:16:41.464Z,14.95
2022-11-22T00:18:03.230Z,17.78
2022-11-22T00:19:24.323Z,16.72
2022-11-22T00:20:45.772Z,18.50
2022-11-22T00:22:07.513Z,15.88
2022-11-22T00:23:28.592Z,16.43
2022-11-22T00:24:50.684Z,16.64
2022-11-22T00:26:11.788Z,16.82
2022-11-22T00:27:33.111Z,17.16
2022-11-22T00:28:54.604Z,14.61
2022-11-22T00:30:15.767Z,14.85
2022-11-22T00:31:36.884Z,14.55
2022-11-22T00:32:57.828Z,15.34
2022-11-22T00:34:19.307Z,14.08
2022-11-22T00:35:40.264Z,16.22
2022-11-22T00:37:01.860Z,14.82
2022-11-22T00:38:22.911Z,15.63
2022-11-22T00:39:44.594Z,15.95
2022-11-22T00:41:05.708Z,16.64
2022-11-22T00:42:27.057Z,16.88
2022-11-22T00:43:48.710Z,16.32
2022-11-22T00:45:10.001Z,15.76
2022-11-22T00:46:31.457Z,15.79
2022-11-22T00:47:52.891Z,16.98
2022-11-22T00:49:14.191Z,14.38
2022-11-22T00:50:36.942Z,16.29
2022-11-22T00:51:58.523Z,14.29
2022-11-22T00:53:19.715Z,16.78
2022-11-22T00:54:41.187Z,16.27
2022-11-22T00:56:02.887Z,18.14
2022-11-22T00:57:25.634Z,18.04
2022-11-22T00:58:47.094Z,17.87
2022-11-22T01:00:09.557Z,15.78
2022-11-22T01:01:32.907Z,11.68
2022-11-22T01:02:54.803Z,16.95
2022-11-22T01:04:15.824Z,16.83
2022-11-22T01:05:37.329Z,16.37
2022-11-22T01:06:58.614Z,16.12
2022-11-22T01:08:20.018Z,17.38
2022-11-22T01:09:41.011Z,16.53
2022-11-22T01:11:02.344Z,18.16
2022-11-22T01:12:23.712Z,18.93
2022-11-22T01:13:44.727Z,17.93
2022-11-22T01:15:06.480Z,14.86
2022-11-22T01:16:27.653Z,17.11
2022-11-22T01:17:49.067Z,16.12
2022-11-22T01:19:10.609Z,16.79
2022-11-22T01:20:31.970Z,16.14
2022-11-22T01:21:53.233Z,18.45
2022-11-22T01:23:14.144Z,17.03
2022-11-22T01:24:35.163Z,17.97
2022-11-22T01:25:56.650Z,16.67
2022-11-22T01:27:18.241Z,17.72
2022-11-22T01:28:39.856Z,17.07
2022-11-22T01:30:00.768Z,17.40
2022-11-22T01:31:22.225Z,14.86
2022-11-22T01:32:43.729Z,17.93
2022-11-22T01:34:05.297Z,17.64
2022-11-22T01:35:26.234Z,16.25
2022-11-22T01:36:47.704Z,17.76
2022-11-22T01:38:08.710Z,17.47
2022-11-22T01:39:30.201Z,15.59
2022-11-22T01:40:52.012Z,15.08
2022-11-22T01:42:13.333Z,16.63
2022-11-22T01:43:34.850Z,14.26
2022-11-22T01:44:59.638Z,12.99
2022-11-22T01:46:29.834Z,16.04
2022-11-22T01:47:50.977Z,13.85
2022-11-22T01:49:15.658Z,14.79
2022-11-22T01:50:37.232Z,17.74
2022-11-22T01:52:01.968Z,17.70
2022-11-22T01:53:26.915Z,16.39
2022-11-22T01:56:03.935Z,15.55
2022-11-22T01:57:27.938Z,13.01
2022-11-22T01:58:52.472Z,16.89
2022-11-22T02:00:15.284Z,15.71
2022-11-22T02:01:36.397Z,16.54
2022-11-22T02:02:59.041Z,16.15
2022-11-22T02:04:20.051Z,14.04
2022-11-22T02:05:41.367Z,17.66
2022-11-22T02:07:09.232Z,17.54
2022-11-22T02:08:42.927Z,17.88
2022-11-22T02:10:04.816Z,14.49
2022-11-22T02:11:29.610Z,19.29
2022-11-22T02:14:09.549Z,18.41
2022-11-22T02:15:30.613Z,16.63
2022-11-22T02:16:52.227Z,16.82
2022-11-22T02:18:13.518Z,15.85
2022-11-22T02:19:42.723Z,16.16
2022-11-22T02:21:04.105Z,15.31
2022-11-22T02:22:40.989Z,15.79
2022-11-22T02:24:18.292Z,15.89
2022-11-22T02:25:55.314Z,16.26
2022-11-22T02:27:17.189Z,16.89
2022-11-22T02:28:38.342Z,15.56
2022-11-22T02:29:59.519Z,17.31
2022-11-22T02:31:34.532Z,16.81
2022-11-22T02:32:55.919Z,18.53
2022-11-22T02:34:17.224Z,20.55
2022-11-22T02:35:38.666Z,20.62
2022-11-22T02:36:59.915Z,19.87
2022-11-22T02:38:25.713Z,21.22
2022-11-22T02:41:02.626Z,23.10
2022-11-22T02:42:25.362Z,20.05
2022-11-22T02:43:46.348Z,20.10
2022-11-22T02:45:08.163Z,21.98
2022-11-22T02:46:29.399Z,20.95
2022-11-22T02:47:50.614Z,20.93
2022-11-22T02:49:11.966Z,20.83
2022-11-22T02:50:33.199Z,21.15
2022-11-22T02:51:54.407Z,20.43
2022-11-22T02:53:15.763Z,20.64
2022-11-22T02:54:36.805Z,19.98
2022-11-22T02:55:58.040Z,21.64
2022-11-22T02:57:19.065Z,21.48
2022-11-22T02:58:40.304Z,22.12
2022-11-22T03:00:01.858Z,21.47
2022-11-22T03:01:23.470Z,22.23
2022-11-22T03:02:44.644Z,21.60
2022-11-22T03:04:05.920Z,20.19
2022-11-22T03:05:27.572Z,23.99
2022-11-22T03:06:48.754Z,20.26
2022-11-22T03:08:10.293Z,19.62
2022-11-22T03:09:32.037Z,20.55
2022-11-22T03:10:53.248Z,20.42
2022-11-22T03:12:14.798Z,21.19
2022-11-22T03:13:35.767Z,19.93
2022-11-22T03:14:57.077Z,19.08
2022-11-22T03:16:18.389Z,20.88
2022-11-22T03:17:39.370Z,21.22
2022-11-22T03:19:00.999Z,19.78
2022-11-22T03:20:22.453Z,19.30
2022-11-22T03:21:44.001Z,18.87
2022-11-22T03:23:05.299Z,19.91
2022-11-22T03:24:26.712Z,18.23
2022-11-22T03:25:48.124Z,18.49
2022-11-22T03:27:09.136Z,17.32
2022-11-22T03:28:30.117Z,18.00
2022-11-22T03:29:51.419Z,19.36
2022-11-22T03:31:12.388Z,17.13
2022-11-22T03:32:34.022Z,18.29
2022-11-22T03:33:55.506Z,18.30
2022-11-22T03:35:16.824Z,19.56
2022-11-22T03:36:37.745Z,17.52
2022-11-22T03:37:59.179Z,19.83
2022-11-22T03:40:29.517Z,17.12
2022-11-22T03:41:50.908Z,18.49
2022-11-22T03:43:12.481Z,20.29
2022-11-22T03:44:33.954Z,22.39
2022-11-22T03:45:55.467Z,19.23
2022-11-22T03:47:16.983Z,19.74
2022-11-22T03:48:38.296Z,21.58
2022-11-22T03:49:59.395Z,18.62
2022-11-22T03:51:20.893Z,19.11
2022-11-22T03:52:42.211Z,18.93
2022-11-22T03:54:03.854Z,18.83
2022-11-22T03:55:25.117Z,15.37
2022-11-22T03:56:46.151Z,17.62
2022-11-22T03:58:07.874Z,15.93
2022-11-22T03:59:29.522Z,16.06
2022-11-22T04:00:51.325Z,13.72
2022-11-22T04:02:12.741Z,17.34
2022-11-22T04:03:34.159Z,16.08
2022-11-22T04:04:55.733Z,18.63
2022-11-22T04:06:17.127Z,15.86
2022-11-22T04:07:38.694Z,17.11
2022-11-22T04:09:00.076Z,18.52
2022-11-22T04:10:24.232Z,18.34
2022-11-22T04:11:45.329Z,18.46
2022-11-22T04:13:06.813Z,17.11
2022-11-22T04:14:28.103Z,14.74
2022-11-22T04:15:49.502Z,17.87
2022-11-22T04:17:13.573Z,18.82
2022-11-22T04:18:34.936Z,21.22
2022-11-22T04:19:56.164Z,19.74
2022-11-22T04:21:17.611Z,18.02
2022-11-22T04:22:39.048Z,18.33
2022-11-22T04:24:02.912Z,18.81
2022-11-22T04:26:36.186Z,23.63
2022-11-22T04:27:57.700Z,23.31
2022-11-22T04:29:19.141Z,22.08
2022-11-22T04:30:40.678Z,24.34
2022-11-22T04:32:01.712Z,22.74
2022-11-22T04:33:23.059Z,18.83
2022-11-22T04:34:43.997Z,19.74
2022-11-22T04:36:08.959Z,15.17
2022-11-22T04:37:28.623Z,18.80
2022-11-22T04:38:49.911Z,18.98
2022-11-22T04:40:12.781Z,17.94
2022-11-22T04:41:34.066Z,15.27
2022-11-22T04:42:55.565Z,16.91
2022-11-22T04:44:16.660Z,17.66
2022-11-22T04:45:38.027Z,20.36
2022-11-22T04:46:59.570Z,18.08
2022-11-22T04:48:20.833Z,19.23
2022-11-22T04:49:42.580Z,16.52
2022-11-22T04:51:04.304Z,17.48
2022-11-22T04:52:25.633Z,18.22
2022-11-22T04:53:47.013Z,17.77
2022-11-22T04:55:08.360Z,17.98
2022-11-22T04:56:29.525Z,20.09
2022-11-22T04:57:55.954Z,19.22
2022-11-22T05:00:35.269Z,16.99
2022-11-22T05:01:56.346Z,18.23
2022-11-22T05:03:17.922Z,19.17
2022-11-22T05:04:39.480Z,19.42
2022-11-22T05:06:02.083Z,18.12
2022-11-22T05:07:23.560Z,21.48
2022-11-22T05:08:44.960Z,20.17
2022-11-22T05:10:07.447Z,20.18
2022-11-22T05:11:28.858Z,19.10
2022-11-22T05:12:50.068Z,21.48
2022-11-22T05:14:11.433Z,22.76
2022-11-22T05:15:32.667Z,25.39
2022-11-22T05:16:54.165Z,22.80
2022-11-22T05:18:15.206Z,26.07
2022-11-22T05:19:36.556Z,34.66
2022-11-22T09:36:13.662Z,29.71
2022-11-22T09:37:35.152Z,27.96
2022-11-22T09:38:56.629Z,22.68
2022-11-22T09:40:18.662Z,19.08
2022-11-22T09:43:00.182Z,18.33
2022-11-22T09:44:33.891Z,18.77
2022-11-22T09:46:05.299Z,20.02
2022-11-22T09:50:46.476Z,20.03
2022-11-22T09:52:11.411Z,19.16
2022-11-22T09:53:39.264Z,16.88
2022-11-22T09:56:24.521Z,12.66
2022-11-22T09:57:49.311Z,16.29
2022-11-22T09:59:25.329Z,15.71
2022-11-22T10:00:51.979Z,17.58
2022-11-22T10:03:59.935Z,16.56
2022-11-22T10:06:44.896Z,14.38
2022-11-22T10:09:45.524Z,15.02
2022-11-22T10:12:42.131Z,15.89
2022-11-22T10:14:06.945Z,14.51
2022-11-22T10:15:48.540Z,15.07
2022-11-22T10:17:13.325Z,16.65
2022-11-22T10:18:56.583Z,17.84
2022-11-22T10:20:19.532Z,17.06
2022-11-22T10:21:40.575Z,19.32
2022-11-22T10:23:01.747Z,18.58
2022-11-22T10:24:23.156Z,18.62
2022-11-22T10:25:59.084Z,18.18
2022-11-22T10:27:20.118Z,15.67
2022-11-22T10:29:10.331Z,17.46
2022-11-22T10:32:02.797Z,19.32
2022-11-22T10:33:41.322Z,17.97
2022-11-22T10:35:29.328Z,19.86
2022-11-22T10:37:00.013Z,18.68
2022-11-22T10:38:27.719Z,18.84
2022-11-22T10:40:07.952Z,19.87
2022-11-22T10:43:32.596Z,17.32
2022-11-22T10:46:19.445Z,22.28
2022-11-22T10:47:47.324Z,19.71
2022-11-22T10:49:21.730Z,19.89
2022-11-22T10:51:20.225Z,19.26
2022-11-22T10:53:00.042Z,22.30
2022-11-22T10:54:36.842Z,17.90
2022-11-22T10:58:59.394Z,18.34
2022-11-22T11:03:16.948Z,19.03
2022-11-22T11:04:38.505Z,16.42
2022-11-22T11:07:26.882Z,17.31
2022-11-22T11:11:32.821Z,18.93
2022-11-22T11:13:03.387Z,20.83
2022-11-22T11:14:34.123Z,18.94
2022-11-22T11:15:56.644Z,20.95
2022-11-22T11:17:20.696Z,18.36
2022-11-22T11:19:01.118Z,18.67
2022-11-22T11:21:43.998Z,14.01
2022-11-22T11:23:20.733Z,19.83
2022-11-22T11:24:29.384Z,19.16
2022-11-22T11:25:51.126Z,18.14
2022-11-22T11:27:12.432Z,17.17
2022-11-22T11:28:34.117Z,17.14
2022-11-22T11:30:00.782Z,19.40
2022-11-22T11:31:22.072Z,21.12
2022-11-22T11:32:55.865Z,20.11
2022-11-22T11:35:33.545Z,20.82
2022-11-22T11:36:56.517Z,19.04
2022-11-22T11:38:43.222Z,17.84
2022-11-22T11:40:05.272Z,18.96
2022-11-22T11:41:31.045Z,20.12
2022-11-22T11:43:12.747Z,21.39
2022-11-22T11:44:36.078Z,20.19
2022-11-22T11:46:01.412Z,20.72
2022-11-22T11:47:33.367Z,19.64
2022-11-22T11:49:14.712Z,16.88
2022-11-22T11:50:36.173Z,18.44
2022-11-22T11:53:25.048Z,17.20
2022-11-22T11:54:48.294Z,18.66
2022-11-22T11:57:37.758Z,18.31
2022-11-22T11:58:59.751Z,19.09
2022-11-22T12:01:53.132Z,17.73
2022-11-22T12:03:18.190Z,20.21
2022-11-22T12:04:57.908Z,20.64
2022-11-22T12:06:19.266Z,22.46
2022-11-22T12:07:43.074Z,19.03
2022-11-22T12:09:07.015Z,19.98
2022-11-22T12:10:37.830Z,21.13
2022-11-22T12:14:18.439Z,19.72
2022-11-22T12:15:38.014Z,24.08
2022-11-22T12:17:03.347Z,24.35
2022-11-22T12:19:59.254Z,38.93
2022-11-22T12:21:36.377Z,32.14
2022-11-22T12:23:04.012Z,24.89
2022-11-22T12:25:41.180Z,22.49
2022-11-22T12:27:03.596Z,23.42
2022-11-22T12:28:25.687Z,24.48
2022-11-22T12:29:46.865Z,24.64
2022-11-22T12:31:35.706Z,24.74
2022-11-22T12:32:59.627Z,25.51
2022-11-22T12:35:42.478Z,23.47
2022-11-22T12:37:07.438Z,20.54
2022-11-22T12:41:10.175Z,27.96
2022-11-22T12:43:50.753Z,21.93
2022-11-22T12:45:22.598Z,36.92
2022-11-22T12:46:48.044Z,27.09
2022-11-22T12:48:16.488Z,34.92
2022-11-22T12:49:41.463Z,42.04
2022-11-22T12:52:45.155Z,31.71
2022-11-22T12:54:10.458Z,27.27
2022-11-22T12:55:38.403Z,20.83
2022-11-22T12:57:03.758Z,28.44
2022-11-22T12:58:47.832Z,23.28
2022-11-22T13:00:21.845Z,20.93
2022-11-22T13:01:46.956Z,23.87
2022-11-22T13:16:45.472Z,19.06
2022-11-22T13:18:08.744Z,21.25
2022-11-22T13:19:30.262Z,22.26
2022-11-22T13:22:17.633Z,16.49
2022-11-22T13:23:57.625Z,18.71
2022-11-22T13:25:46.352Z,18.26
2022-11-22T13:27:28.968Z,18.27
2022-11-22T13:28:50.101Z,18.03
2022-11-22T13:30:19.677Z,19.48
2022-11-22T13:32:02.727Z,21.29
2022-11-22T13:33:25.266Z,25.18
2022-11-22T13:35:05.485Z,26.98
2022-11-22T13:36:34.698Z,24.87
2022-11-22T13:37:57.960Z,30.28
2022-11-22T13:39:21.847Z,26.96
2022-11-22T13:42:02.188Z,30.32
2022-11-22T13:43:54.075Z,27.63
2022-11-22T13:45:22.319Z,35.74
2022-11-22T13:46:53.069Z,30.01
2022-11-22T13:48:34.679Z,34.79
2022-11-22T13:49:56.348Z,35.29
2022-11-22T13:51:19.737Z,34.98
2022-11-22T13:52:51.050Z,35.78
2022-11-22T13:54:38.772Z,28.98
2022-11-22T13:56:21.914Z,28.98
2022-11-22T13:57:44.780Z,30.22
2022-11-22T13:59:14.152Z,62.69
2022-11-22T14:00:42.284Z,48.40
2022-11-22T14:02:06.452Z,52.82
2022-11-22T14:03:36.335Z,40.97
2022-11-22T14:05:00.045Z,40.87
2022-11-22T14:07:38.965Z,41.53
2022-11-22T14:09:37.175Z,47.92
2022-11-22T14:11:05.078Z,52.22
2022-11-22T14:12:50.876Z,53.11
2022-11-22T14:14:19.131Z,49.54
2022-11-22T14:17:43.864Z,53.48
2022-11-22T15:00:57.924Z,31.48
2022-11-22T15:02:34.785Z,36.07
2022-11-22T15:09:14.434Z,31.64
2022-11-22T15:09:19.925Z,37.21
2022-11-22T15:09:23.613Z,35.02
2022-11-22T15:09:25.761Z,30.86
2022-11-22T15:11:54.055Z,28.64
2022-11-22T15:13:19.067Z,30.68
2022-11-22T15:57:55.507Z,41.27
2022-11-22T15:59:25.896Z,44.31
2022-11-22T16:00:47.356Z,55.32
2022-11-22T16:02:13.995Z,46.80
2022-11-22T16:03:37.498Z,52.72
2022-11-22T16:06:04.716Z,55.92
2022-11-22T16:06:30.030Z,45.04
2022-11-22T16:07:51.331Z,47.72
2022-11-22T16:10:35.882Z,52.23
2022-11-22T16:11:57.353Z,58.78
2022-11-22T16:13:22.874Z,51.84
2022-11-22T16:14:48.308Z,66.59
2022-11-22T16:16:16.458Z,51.02
2022-11-22T16:17:41.408Z,54.12
2022-11-22T16:19:21.985Z,67.71
2022-11-22T16:21:05.745Z,59.01
2022-11-22T16:22:30.912Z,59.93
2022-11-22T16:24:09.744Z,58.89
2022-11-22T16:25:34.917Z,57.37
2022-11-22T16:27:05.356Z,52.38
2022-11-22T16:28:29.908Z,50.96
2022-11-22T16:29:51.387Z,51.64
2022-11-22T16:32:36.840Z,34.49
2022-11-22T16:33:58.241Z,43.03
2022-11-22T16:35:29.501Z,40.02
2022-11-22T16:36:43.434Z,38.68
2022-11-22T16:38:04.586Z,40.17
2022-11-22T16:39:25.640Z,37.38
2022-11-22T16:40:46.913Z,42.75
2022-11-22T16:42:08.351Z,35.69
2022-11-22T16:43:34.563Z,35.31
2022-11-22T16:45:00.925Z,32.40
2022-11-22T16:46:19.232Z,37.18
2022-11-22T16:47:40.662Z,65.73
2022-11-22T16:49:02.541Z,91.14
2022-11-22T16:50:23.587Z,119.76
2022-11-22T16:53:02.652Z,177.62
2022-11-22T16:54:23.210Z,51.71
2022-11-22T16:55:44.813Z,38.97
2022-11-22T16:57:14.173Z,35.94
2022-11-22T16:58:35.552Z,32.94
2022-11-22T16:59:58.993Z,38.36
2022-11-22T17:01:21.386Z,37.59
2022-11-22T19:46:36.044Z,125.62
2022-11-22T19:49:07.707Z,73.14
2022-11-22T19:50:28.773Z,42.57
2022-11-22T19:51:50.223Z,54.81
2022-11-22T19:53:12.716Z,71.56
2022-11-22T19:54:34.040Z,44.02
2022-11-22T19:55:57.338Z,33.65
2022-11-22T19:57:20.714Z,34.02
2022-11-22T20:00:04.349Z,29.21
2022-11-22T20:01:26.863Z,28.98
2022-11-22T20:02:48.273Z,43.20
2022-11-22T20:04:10.622Z,38.09
2022-11-22T20:05:32.317Z,23.51
2022-11-22T20:06:54.772Z,32.44
2022-11-22T20:08:17.119Z,27.32
2022-11-22T20:09:38.185Z,30.61
2022-11-22T20:11:04.280Z,31.10
2022-11-22T20:12:28.077Z,35.94
2022-11-22T20:13:49.612Z,26.63
2022-11-22T20:15:10.880Z,26.36
2022-11-22T20:16:32.303Z,26.13
2022-11-22T20:17:53.679Z,26.29
2022-11-22T20:19:15.549Z,25.90
2022-11-22T20:20:37.331Z,29.71
2022-11-22T20:21:58.719Z,27.03
2022-11-22T20:23:19.858Z,25.44
2022-11-22T20:24:41.095Z,27.17
2022-11-22T20:26:12.511Z,23.99
2022-11-22T20:27:33.717Z,23.64
2022-11-22T20:28:59.385Z,22.03
2022-11-22T20:30:20.622Z,21.43
2022-11-22T20:31:41.672Z,21.92
2022-11-22T20:33:03.274Z,21.92
2022-11-22T20:34:24.330Z,21.03
2022-11-22T20:35:45.445Z,22.77
2022-11-22T20:37:06.562Z,23.59
2022-11-22T20:38:32.863Z,24.71
2022-11-22T20:39:54.383Z,22.09
2022-11-22T20:41:16.358Z,20.45
2022-11-22T20:42:37.417Z,20.89
2022-11-22T20:43:58.659Z,21.07
2022-11-22T20:45:20.215Z,22.48
2022-11-22T20:46:41.840Z,25.26
2022-11-22T20:48:04.350Z,31.59
2022-11-22T20:49:25.704Z,24.83
2022-11-22T20:50:50.145Z,23.72
2022-11-22T20:52:11.552Z,22.79
2022-11-22T20:53:36.269Z,21.20
2022-11-22T20:55:03.380Z,19.66
2022-11-22T20:56:20.869Z,21.14
2022-11-22T20:57:42.303Z,19.11
2022-11-22T20:59:04.196Z,20.43
2022-11-22T21:00:25.277Z,20.41
2022-11-22T21:01:46.272Z,19.50
2022-11-22T21:03:07.912Z,21.44
2022-11-22T21:04:29.439Z,19.35
2022-11-22T21:05:53.384Z,19.97
2022-11-22T21:07:15.455Z,19.99
2022-11-22T21:08:37.202Z,17.86
2022-11-22T21:09:58.627Z,20.40
2022-11-22T21:11:26.717Z,19.88
2022-11-22T21:12:48.283Z,17.69
2022-11-22T21:14:09.399Z,17.22
2022-11-22T21:15:31.001Z,19.97
2022-11-22T21:16:52.421Z,18.99
2022-11-22T21:19:25.662Z,19.98
2022-11-22T21:20:47.020Z,17.72
2022-11-22T21:22:08.558Z,16.17
2022-11-22T21:23:32.626Z,18.02
2022-11-22T21:24:55.415Z,16.21
2022-11-22T21:26:17.461Z,17.43
2022-11-22T21:27:39.669Z,18.07
2022-11-22T21:29:04.518Z,12.92
2022-11-22T21:30:26.809Z,16.74
2022-11-22T21:31:48.303Z,14.83
2022-11-22T21:33:09.748Z,15.39
2022-11-22T21:34:31.273Z,15.68
2022-11-22T21:35:52.617Z,16.22
2022-11-22T21:37:14.087Z,13.97
2022-11-22T21:38:36.483Z,15.51
2022-11-22T21:39:57.904Z,14.12
2022-11-22T21:42:43.232Z,14.21
2022-11-22T21:44:05.112Z,15.80
2022-11-22T21:45:26.331Z,16.67
2022-11-22T21:46:47.927Z,15.47
2022-11-22T21:48:09.174Z,15.11
2022-11-22T21:49:30.570Z,16.20
2022-11-22T21:50:53.447Z,16.06
2022-11-22T21:52:15.223Z,17.22
2022-11-22T21:53:36.380Z,19.93
2022-11-22T21:54:57.849Z,16.69
2022-11-22T21:56:19.181Z,16.52
2022-11-22T21:57:40.715Z,16.88
2022-11-22T21:59:02.885Z,14.00
2022-11-22T22:01:35.549Z,17.77
2022-11-22T22:02:57.059Z,11.68
2022-11-22T22:04:20.773Z,17.31
2022-11-22T22:05:48.390Z,15.30
2022-11-22T22:07:29.628Z,16.32
2022-11-22T22:08:33.124Z,17.93
2022-11-22T22:09:54.520Z,15.84
2022-11-22T22:11:15.690Z,16.67
2022-11-22T22:12:37.438Z,15.96
2022-11-22T22:13:59.800Z,16.98
2022-11-22T22:15:21.345Z,16.03
2022-11-22T22:16:42.686Z,16.40
2022-11-22T22:18:04.388Z,15.96
2022-11-22T22:19:26.945Z,15.42
2022-11-22T22:20:52.133Z,11.77
2022-11-22T22:22:13.437Z,16.66
2022-11-22T22:23:36.061Z,13.63
2022-11-22T22:24:58.230Z,15.44
2022-11-22T22:26:19.756Z,14.12
2022-11-22T22:27:40.861Z,15.04
2022-11-22T22:29:02.617Z,16.68
2022-11-22T22:30:24.019Z,15.63
2022-11-22T22:31:45.528Z,15.22
2022-11-22T22:33:07.147Z,14.77
2022-11-22T22:34:30.356Z,13.50
2022-11-22T22:35:51.805Z,13.27
2022-11-22T22:37:13.164Z,13.22
2022-11-22T22:38:34.506Z,10.88
2022-11-22T22:39:57.444Z,13.03
2022-11-22T22:41:18.599Z,12.82
2022-11-22T22:42:39.941Z,12.87
2022-11-22T22:44:01.285Z,14.63
2022-11-22T22:45:22.900Z,13.31
2022-11-22T22:46:44.577Z,13.98
2022-11-22T22:48:05.646Z,14.92
2022-11-22T22:49:27.962Z,14.67
2022-11-22T22:50:49.096Z,15.34
2022-11-22T22:52:10.394Z,13.55
2022-11-22T22:53:31.435Z,12.59
2022-11-22T22:54:53.175Z,13.87
2022-11-22T22:56:15.470Z,15.08
2022-11-22T22:57:36.925Z,9.97
2022-11-22T22:58:58.539Z,13.14
2022-11-22T23:00:19.969Z,13.18
2022-11-22T23:01:41.474Z,13.18
2022-11-22T23:03:02.954Z,15.27
2022-11-22T23:04:24.247Z,14.33
2022-11-22T23:05:45.719Z,14.02
2022-11-22T23:07:06.910Z,13.23
2022-11-22T23:08:28.368Z,14.73
2022-11-22T23:09:49.630Z,14.71
2022-11-22T23:11:13.040Z,13.24
2022-11-22T23:13:55.065Z,12.53
2022-11-22T23:16:28.189Z,12.76
2022-11-22T23:17:49.581Z,12.58
2022-11-22T23:19:11.005Z,12.31
2022-11-22T23:20:32.285Z,10.97
2022-11-22T23:21:54.171Z,13.57
2022-11-22T23:23:15.461Z,9.52
2022-11-22T23:24:36.818Z,12.41
2022-11-22T23:27:13.336Z,11.87
2022-11-22T23:28:34.960Z,11.27
2022-11-22T23:29:56.375Z,10.90
2022-11-22T23:31:17.403Z,8.77
2022-11-22T23:32:38.437Z,9.74
2022-11-22T23:34:00.263Z,9.04
2022-11-22T23:35:21.653Z,10.15
2022-11-22T23:36:42.609Z,8.44
2022-11-22T23:38:04.111Z,9.42
2022-11-22T23:39:25.073Z,10.47
2022-11-22T23:40:52.415Z,10.86
2022-11-22T23:42:13.473Z,8.64
2022-11-22T23:43:34.500Z,9.68
2022-11-22T23:44:56.090Z,8.64
2022-11-22T23:46:17.434Z,8.62
2022-11-22T23:47:39.033Z,8.33
2022-11-22T23:49:00.552Z,10.16
2022-11-22T23:50:21.504Z,9.12
2022-11-22T23:51:43.042Z,8.16
2022-11-22T23:53:04.605Z,8.22
2022-11-22T23:54:26.181Z,9.19
2022-11-22T23:55:47.575Z,8.73
2022-11-22T23:57:09.162Z,9.31
2022-11-22T23:58:30.434Z,10.12
2022-11-22T23:59:51.649Z,8.57
